22°C Temp
17°C Dewpoint
% Humidity
Temperature
8 KM/H
5 MPH
4 KTS
100°
Due East

Wind Speed
Clear
Conditions
Pressure 1017.92 (hPa) - 30.06 (in)
Visibility 6.2 (mi) - 10.0 (km)

Current Conditions
LIRQ
Location 35(km)
Metar :LIRQ 172250Z 10004KT CAVOK 22/17 Q1018
Fri 18th June 00:50 am

Airport
  Metar Aviation API Data Provided by https://www.checkwx.com/ PHP scripts by weather34.com ©2021